<?xml version="1.0" encoding="UTF-8" standalone="no" ?>
<gpx xmlns="http://www.topografix.com/GPX/1/1" xmlns:xsi="http://www.w3.org/2001/XMLSchema-instance" xsi:schemaLocation="http://www.topografix.com/GPX/1/1 http://www.topografix.com/GPX/1/1/gpx.xsd" version="1.1" creator="VisuGPX - https://www.visugpx.com">
  <metadata>
    <name>Rando Source du Lison</name>
    <desc><![CDATA[                                                                                                                                            ]]></desc>
  </metadata>
  <wpt lat="46.96583" lon="6.0027">
    <ele>708</ele>
    <name><![CDATA[Le Vieux Château]]></name>
    <desc><![CDATA[23-NOV-08 14:21:41]]></desc>
    <cmt><![CDATA[23-NOV-08 14:21:41]]></cmt>
  </wpt>
  <wpt lat="46.96717" lon="6.01074">
    <ele>335</ele>
    <name><![CDATA[Parking]]></name>
    <desc><![CDATA[23-NOV-08 11:29:03]]></desc>
    <cmt><![CDATA[23-NOV-08 11:29:03]]></cmt>
  </wpt>
  <wpt lat="46.96566" lon="6.01163">
    <ele>406</ele>
    <name><![CDATA[Source du Lison]]></name>
    <desc><![CDATA[23-NOV-08 11:36:05]]></desc>
    <cmt><![CDATA[23-NOV-08 11:36:05]]></cmt>
  </wpt>
  <wpt lat="46.96943" lon="6.0098">
    <ele>443</ele>
    <name><![CDATA[Vieux Chêne]]></name>
    <desc><![CDATA[23-NOV-08 16:01:24]]></desc>
    <cmt><![CDATA[23-NOV-08 16:01:24]]></cmt>
  </wpt>
  <trk>
    <name><![CDATA[ACTIVE LOG 002]]></name>
    <trkseg>
      <trkpt lat="46.96546" lon="6.01257">
        <ele>425.520752</ele>
        <time>2008-11-23T10:49:37Z</time>
      </trkpt>
      <trkpt lat="46.96547" lon="6.01285">
        <ele>428.404663</ele>
        <time>2008-11-23T10:49:55Z</time>
      </trkpt>
      <trkpt lat="46.96543" lon="6.01296">
        <ele>431.769165</ele>
        <time>2008-11-23T10:50:14Z</time>
      </trkpt>
      <trkpt lat="46.96509" lon="6.01267">
        <ele>434.65332</ele>
        <time>2008-11-23T10:50:36Z</time>
      </trkpt>
      <trkpt lat="46.96503" lon="6.0129">
        <ele>438.017822</ele>
        <time>2008-11-23T10:50:56Z</time>
      </trkpt>
      <trkpt lat="46.96496" lon="6.01283">
        <ele>441.382446</ele>
        <time>2008-11-23T10:51:19Z</time>
      </trkpt>
      <trkpt lat="46.96492" lon="6.01279">
        <ele>444.74707</ele>
        <time>2008-11-23T10:52:14Z</time>
      </trkpt>
      <trkpt lat="46.96449" lon="6.01289">
        <ele>447.630981</ele>
        <time>2008-11-23T10:53:02Z</time>
      </trkpt>
      <trkpt lat="46.96408" lon="6.01295">
        <ele>445.227661</ele>
        <time>2008-11-23T10:54:06Z</time>
      </trkpt>
      <trkpt lat="46.96403" lon="6.01295">
        <ele>441.863159</ele>
        <time>2008-11-23T10:54:23Z</time>
      </trkpt>
      <trkpt lat="46.96403" lon="6.01297">
        <ele>438.017822</ele>
        <time>2008-11-23T10:54:48Z</time>
      </trkpt>
      <trkpt lat="46.96394" lon="6.01304">
        <ele>439.459717</ele>
        <time>2008-11-23T10:55:20Z</time>
      </trkpt>
      <trkpt lat="46.96411" lon="6.01299">
        <ele>439.459717</ele>
        <time>2008-11-23T10:56:05Z</time>
      </trkpt>
      <trkpt lat="46.96412" lon="6.01313">
        <ele>438.979126</ele>
        <time>2008-11-23T10:58:20Z</time>
      </trkpt>
      <trkpt lat="46.96418" lon="6.01313">
        <ele>440.901855</ele>
        <time>2008-11-23T10:59:31Z</time>
      </trkpt>
      <trkpt lat="46.96423" lon="6.01312">
        <ele>444.74707</ele>
        <time>2008-11-23T10:59:47Z</time>
      </trkpt>
      <trkpt lat="46.96437" lon="6.01297">
        <ele>447.630981</ele>
        <time>2008-11-23T11:00:12Z</time>
      </trkpt>
      <trkpt lat="46.96472" lon="6.01283">
        <ele>444.74707</ele>
        <time>2008-11-23T11:00:37Z</time>
      </trkpt>
      <trkpt lat="46.9651" lon="6.01279">
        <ele>441.382446</ele>
        <time>2008-11-23T11:01:23Z</time>
      </trkpt>
      <trkpt lat="46.96512" lon="6.0128">
        <ele>438.017822</ele>
        <time>2008-11-23T11:01:45Z</time>
      </trkpt>
      <trkpt lat="46.96513" lon="6.0127">
        <ele>435.133911</ele>
        <time>2008-11-23T11:01:59Z</time>
      </trkpt>
      <trkpt lat="46.96516" lon="6.01268">
        <ele>431.769165</ele>
        <time>2008-11-23T11:02:14Z</time>
      </trkpt>
      <trkpt lat="46.96517" lon="6.01275">
        <ele>428.885376</ele>
        <time>2008-11-23T11:02:28Z</time>
      </trkpt>
      <trkpt lat="46.96531" lon="6.01287">
        <ele>425.520752</ele>
        <time>2008-11-23T11:02:41Z</time>
      </trkpt>
      <trkpt lat="46.96537" lon="6.01271">
        <ele>422.636719</ele>
        <time>2008-11-23T11:02:57Z</time>
      </trkpt>
      <trkpt lat="46.96538" lon="6.01255">
        <ele>419.752808</ele>
        <time>2008-11-23T11:03:13Z</time>
      </trkpt>
      <trkpt lat="46.96546" lon="6.01252">
        <ele>416.388184</ele>
        <time>2008-11-23T11:03:33Z</time>
      </trkpt>
      <trkpt lat="46.96567" lon="6.01267">
        <ele>413.02356</ele>
        <time>2008-11-23T11:03:46Z</time>
      </trkpt>
      <trkpt lat="46.96558" lon="6.01263">
        <ele>409.659058</ele>
        <time>2008-11-23T11:04:07Z</time>
      </trkpt>
      <trkpt lat="46.96547" lon="6.01221">
        <ele>406.774902</ele>
        <time>2008-11-23T11:04:28Z</time>
      </trkpt>
      <trkpt lat="46.96563" lon="6.01222">
        <ele>406.774902</ele>
        <time>2008-11-23T11:05:08Z</time>
      </trkpt>
      <trkpt lat="46.96587" lon="6.01232">
        <ele>409.659058</ele>
        <time>2008-11-23T11:12:03Z</time>
      </trkpt>
      <trkpt lat="46.966" lon="6.0122">
        <ele>412.542847</ele>
        <time>2008-11-23T11:15:53Z</time>
      </trkpt>
      <trkpt lat="46.96581" lon="6.01228">
        <ele>417.349609</ele>
        <time>2008-11-23T11:22:12Z</time>
      </trkpt>
      <trkpt lat="46.96581" lon="6.01227">
        <ele>416.868896</ele>
        <time>2008-11-23T11:22:13Z</time>
      </trkpt>
      <trkpt lat="46.96574" lon="6.01232">
        <ele>413.504272</ele>
        <time>2008-11-23T11:23:52Z</time>
      </trkpt>
      <trkpt lat="46.96574" lon="6.01232">
        <ele>416.868896</ele>
        <time>2008-11-23T11:23:53Z</time>
      </trkpt>
      <trkpt lat="46.96571" lon="6.0121">
        <ele>413.504272</ele>
        <time>2008-11-23T11:24:29Z</time>
      </trkpt>
      <trkpt lat="46.9657" lon="6.01186">
        <ele>416.388184</ele>
        <time>2008-11-23T11:24:40Z</time>
      </trkpt>
      <trkpt lat="46.9658" lon="6.01142">
        <ele>413.984863</ele>
        <time>2008-11-23T11:25:18Z</time>
      </trkpt>
      <trkpt lat="46.96622" lon="6.01104">
        <ele>413.02356</ele>
        <time>2008-11-23T11:26:05Z</time>
      </trkpt>
      <trkpt lat="46.96696" lon="6.01052">
        <ele>415.42688</ele>
        <time>2008-11-23T11:27:45Z</time>
      </trkpt>
      <trkpt lat="46.96716" lon="6.0105">
        <ele>415.907471</ele>
        <time>2008-11-23T11:28:05Z</time>
      </trkpt>
      <trkpt lat="46.96711" lon="6.01065">
        <ele>415.42688</ele>
        <time>2008-11-23T11:29:27Z</time>
      </trkpt>
      <trkpt lat="46.96681" lon="6.01066">
        <ele>413.504272</ele>
        <time>2008-11-23T11:30:03Z</time>
      </trkpt>
      <trkpt lat="46.96675" lon="6.0103">
        <ele>414.946167</ele>
        <time>2008-11-23T11:30:50Z</time>
      </trkpt>
      <trkpt lat="46.96671" lon="6.00967">
        <ele>415.907471</ele>
        <time>2008-11-23T11:32:19Z</time>
      </trkpt>
      <trkpt lat="46.96665" lon="6.00932">
        <ele>415.907471</ele>
        <time>2008-11-23T11:32:51Z</time>
      </trkpt>
      <trkpt lat="46.96638" lon="6.00854">
        <ele>419.272217</ele>
        <time>2008-11-23T11:34:53Z</time>
      </trkpt>
      <trkpt lat="46.96629" lon="6.00843">
        <ele>422.156006</ele>
        <time>2008-11-23T11:35:16Z</time>
      </trkpt>
      <trkpt lat="46.96615" lon="6.0084">
        <ele>425.040161</ele>
        <time>2008-11-23T11:35:39Z</time>
      </trkpt>
      <trkpt lat="46.96571" lon="6.00841">
        <ele>428.404663</ele>
        <time>2008-11-23T11:36:09Z</time>
      </trkpt>
      <trkpt lat="46.96578" lon="6.00862">
        <ele>429.846558</ele>
        <time>2008-11-23T11:36:44Z</time>
      </trkpt>
      <trkpt lat="46.96611" lon="6.00825">
        <ele>431.769165</ele>
        <time>2008-11-23T11:37:06Z</time>
      </trkpt>
      <trkpt lat="46.96631" lon="6.00832">
        <ele>433.691895</ele>
        <time>2008-11-23T11:37:25Z</time>
      </trkpt>
      <trkpt lat="46.96648" lon="6.00844">
        <ele>436.575928</ele>
        <time>2008-11-23T11:37:39Z</time>
      </trkpt>
      <trkpt lat="46.96648" lon="6.00841">
        <ele>438.498535</ele>
        <time>2008-11-23T11:37:48Z</time>
      </trkpt>
      <trkpt lat="46.96668" lon="6.00876">
        <ele>441.382446</ele>
        <time>2008-11-23T11:38:01Z</time>
      </trkpt>
      <trkpt lat="46.96678" lon="6.00879">
        <ele>442.343872</ele>
        <time>2008-11-23T11:38:09Z</time>
      </trkpt>
      <trkpt lat="46.96737" lon="6.00867">
        <ele>442.343872</ele>
        <time>2008-11-23T11:38:14Z</time>
      </trkpt>
      <trkpt lat="46.96738" lon="6.00879">
        <ele>406.774902</ele>
        <time>2008-11-23T11:49:18Z</time>
      </trkpt>
      <trkpt lat="46.96775" lon="6.00846">
        <ele>405.813721</ele>
        <time>2008-11-23T11:49:44Z</time>
      </trkpt>
      <trkpt lat="46.96784" lon="6.00811">
        <ele>404.852295</ele>
        <time>2008-11-23T11:50:08Z</time>
      </trkpt>
      <trkpt lat="46.9679" lon="6.00757">
        <ele>404.371704</ele>
        <time>2008-11-23T11:50:44Z</time>
      </trkpt>
      <trkpt lat="46.96867" lon="6.00577">
        <ele>405.333008</ele>
        <time>2008-11-23T11:53:08Z</time>
      </trkpt>
      <trkpt lat="46.96874" lon="6.00539">
        <ele>402.449097</ele>
        <time>2008-11-23T11:53:34Z</time>
      </trkpt>
      <trkpt lat="46.9689" lon="6.00517">
        <ele>402.449097</ele>
        <time>2008-11-23T11:53:56Z</time>
      </trkpt>
      <trkpt lat="46.96893" lon="6.00511">
        <ele>401.968506</ele>
        <time>2008-11-23T11:54:02Z</time>
      </trkpt>
      <trkpt lat="46.96898" lon="6.00505">
        <ele>401.968506</ele>
        <time>2008-11-23T11:54:15Z</time>
      </trkpt>
      <trkpt lat="46.96955" lon="6.00426">
        <ele>399.084351</ele>
        <time>2008-11-23T11:55:38Z</time>
      </trkpt>
      <trkpt lat="46.96962" lon="6.00383">
        <ele>400.045898</ele>
        <time>2008-11-23T11:56:03Z</time>
      </trkpt>
      <trkpt lat="46.96976" lon="6.00356">
        <ele>401.487793</ele>
        <time>2008-11-23T11:56:26Z</time>
      </trkpt>
      <trkpt lat="46.96988" lon="6.00335">
        <ele>401.968506</ele>
        <time>2008-11-23T11:56:40Z</time>
      </trkpt>
      <trkpt lat="46.96999" lon="6.00326">
        <ele>403.4104</ele>
        <time>2008-11-23T11:56:53Z</time>
      </trkpt>
      <trkpt lat="46.96995" lon="6.00308">
        <ele>404.371704</ele>
        <time>2008-11-23T11:57:08Z</time>
      </trkpt>
      <trkpt lat="46.97001" lon="6.00283">
        <ele>405.333008</ele>
        <time>2008-11-23T11:57:24Z</time>
      </trkpt>
      <trkpt lat="46.97006" lon="6.00267">
        <ele>404.852295</ele>
        <time>2008-11-23T11:57:39Z</time>
      </trkpt>
      <trkpt lat="46.97014" lon="6.00252">
        <ele>404.852295</ele>
        <time>2008-11-23T11:57:47Z</time>
      </trkpt>
      <trkpt lat="46.97013" lon="6.00245">
        <ele>404.852295</ele>
        <time>2008-11-23T11:57:52Z</time>
      </trkpt>
      <trkpt lat="46.97033" lon="6.00229">
        <ele>404.371704</ele>
        <time>2008-11-23T11:58:06Z</time>
      </trkpt>
      <trkpt lat="46.97042" lon="6.0022">
        <ele>401.487793</ele>
        <time>2008-11-23T11:58:23Z</time>
      </trkpt>
      <trkpt lat="46.9706" lon="6.00196">
        <ele>398.123169</ele>
        <time>2008-11-23T11:58:40Z</time>
      </trkpt>
      <trkpt lat="46.97061" lon="6.0018">
        <ele>398.123169</ele>
        <time>2008-11-23T11:58:51Z</time>
      </trkpt>
      <trkpt lat="46.97066" lon="6.00169">
        <ele>398.123169</ele>
        <time>2008-11-23T11:58:59Z</time>
      </trkpt>
      <trkpt lat="46.9707" lon="6.00148">
        <ele>398.123169</ele>
        <time>2008-11-23T11:59:13Z</time>
      </trkpt>
      <trkpt lat="46.97078" lon="6.00131">
        <ele>398.60376</ele>
        <time>2008-11-23T11:59:25Z</time>
      </trkpt>
      <trkpt lat="46.9706" lon="6.00099">
        <ele>398.60376</ele>
        <time>2008-11-23T11:59:37Z</time>
      </trkpt>
      <trkpt lat="46.97059" lon="6.00078">
        <ele>399.565063</ele>
        <time>2008-11-23T11:59:50Z</time>
      </trkpt>
      <trkpt lat="46.97065" lon="6.00065">
        <ele>400.045898</ele>
        <time>2008-11-23T11:59:59Z</time>
      </trkpt>
      <trkpt lat="46.97064" lon="6.00053">
        <ele>401.968506</ele>
        <time>2008-11-23T12:00:10Z</time>
      </trkpt>
      <trkpt lat="46.97065" lon="6.00052">
        <ele>401.487793</ele>
        <time>2008-11-23T12:00:11Z</time>
      </trkpt>
      <trkpt lat="46.97073" lon="6.00036">
        <ele>402.929688</ele>
        <time>2008-11-23T12:00:25Z</time>
      </trkpt>
      <trkpt lat="46.97082" lon="6.0002">
        <ele>404.371704</ele>
        <time>2008-11-23T12:00:42Z</time>
      </trkpt>
      <trkpt lat="46.97095" lon="5.99999">
        <ele>405.813721</ele>
        <time>2008-11-23T12:00:56Z</time>
      </trkpt>
      <trkpt lat="46.9709" lon="5.9997">
        <ele>407.255615</ele>
        <time>2008-11-23T12:01:19Z</time>
      </trkpt>
      <trkpt lat="46.97109" lon="5.99953">
        <ele>406.774902</ele>
        <time>2008-11-23T12:01:30Z</time>
      </trkpt>
      <trkpt lat="46.97168" lon="5.99893">
        <ele>403.891113</ele>
        <time>2008-11-23T12:02:55Z</time>
      </trkpt>
      <trkpt lat="46.97194" lon="5.99879">
        <ele>401.487793</ele>
        <time>2008-11-23T12:03:18Z</time>
      </trkpt>
      <trkpt lat="46.97242" lon="5.99826">
        <ele>404.371704</ele>
        <time>2008-11-23T12:04:23Z</time>
      </trkpt>
      <trkpt lat="46.97247" lon="5.99815">
        <ele>405.813721</ele>
        <time>2008-11-23T12:04:42Z</time>
      </trkpt>
      <trkpt lat="46.9723" lon="5.99826">
        <ele>408.697632</ele>
        <time>2008-11-23T12:05:53Z</time>
      </trkpt>
      <trkpt lat="46.97221" lon="5.99835">
        <ele>412.062256</ele>
        <time>2008-11-23T12:06:15Z</time>
      </trkpt>
      <trkpt lat="46.97208" lon="5.99838">
        <ele>415.42688</ele>
        <time>2008-11-23T12:06:36Z</time>
      </trkpt>
      <trkpt lat="46.97196" lon="5.99844">
        <ele>418.310791</ele>
        <time>2008-11-23T12:06:59Z</time>
      </trkpt>
      <trkpt lat="46.97181" lon="5.99847">
        <ele>421.675415</ele>
        <time>2008-11-23T12:07:27Z</time>
      </trkpt>
      <trkpt lat="46.97145" lon="5.99844">
        <ele>424.559448</ele>
        <time>2008-11-23T12:08:05Z</time>
      </trkpt>
      <trkpt lat="46.97115" lon="5.9984">
        <ele>427.92395</ele>
        <time>2008-11-23T12:08:40Z</time>
      </trkpt>
      <trkpt lat="46.97085" lon="5.99824">
        <ele>430.807983</ele>
        <time>2008-11-23T12:09:25Z</time>
      </trkpt>
      <trkpt lat="46.97074" lon="5.99815">
        <ele>430.807983</ele>
        <time>2008-11-23T12:09:39Z</time>
      </trkpt>
      <trkpt lat="46.97055" lon="5.99801">
        <ele>431.288574</ele>
        <time>2008-11-23T12:10:04Z</time>
      </trkpt>
      <trkpt lat="46.97031" lon="5.99779">
        <ele>434.172607</ele>
        <time>2008-11-23T12:10:44Z</time>
      </trkpt>
      <trkpt lat="46.97004" lon="5.99773">
        <ele>437.056519</ele>
        <time>2008-11-23T12:11:30Z</time>
      </trkpt>
      <trkpt lat="46.96985" lon="5.99762">
        <ele>440.421265</ele>
        <time>2008-11-23T12:12:04Z</time>
      </trkpt>
      <trkpt lat="46.9697" lon="5.99759">
        <ele>443.785767</ele>
        <time>2008-11-23T12:12:28Z</time>
      </trkpt>
      <trkpt lat="46.9697" lon="5.99759">
        <ele>442.824463</ele>
        <time>2008-11-23T12:12:29Z</time>
      </trkpt>
      <trkpt lat="46.96957" lon="5.99756">
        <ele>445.708374</ele>
        <time>2008-11-23T12:13:09Z</time>
      </trkpt>
      <trkpt lat="46.96905" lon="5.99756">
        <ele>449.072998</ele>
        <time>2008-11-23T12:14:28Z</time>
      </trkpt>
      <trkpt lat="46.96897" lon="5.99753">
        <ele>451.957031</ele>
        <time>2008-11-23T12:14:53Z</time>
      </trkpt>
      <trkpt lat="46.96867" lon="5.99761">
        <ele>455.802246</ele>
        <time>2008-11-23T12:15:29Z</time>
      </trkpt>
      <trkpt lat="46.96841" lon="5.9976">
        <ele>458.205566</ele>
        <time>2008-11-23T12:15:55Z</time>
      </trkpt>
      <trkpt lat="46.96826" lon="5.99758">
        <ele>461.089478</ele>
        <time>2008-11-23T12:16:21Z</time>
      </trkpt>
      <trkpt lat="46.96833" lon="5.99757">
        <ele>459.16687</ele>
        <time>2008-11-23T12:16:51Z</time>
      </trkpt>
      <trkpt lat="46.96834" lon="5.99758">
        <ele>459.647583</ele>
        <time>2008-11-23T12:16:52Z</time>
      </trkpt>
      <trkpt lat="46.96834" lon="5.99757">
        <ele>466.857422</ele>
        <time>2008-11-23T12:16:53Z</time>
      </trkpt>
      <trkpt lat="46.96835" lon="5.99756">
        <ele>461.57019</ele>
        <time>2008-11-23T12:16:54Z</time>
      </trkpt>
      <trkpt lat="46.96821" lon="5.99715">
        <ele>436.575928</ele>
        <time>2008-11-23T12:17:18Z</time>
      </trkpt>
      <trkpt lat="46.96821" lon="5.99715">
        <ele>396.681152</ele>
        <time>2008-11-23T12:17:19Z</time>
      </trkpt>
      <trkpt lat="46.96821" lon="5.99715">
        <ele>400.526489</ele>
        <time>2008-11-23T12:17:23Z</time>
      </trkpt>
      <trkpt lat="46.96853" lon="5.99786">
        <ele>405.813721</ele>
        <time>2008-11-23T12:17:25Z</time>
      </trkpt>
      <trkpt lat="46.96854" lon="5.99787">
        <ele>404.371704</ele>
        <time>2008-11-23T12:17:26Z</time>
      </trkpt>
      <trkpt lat="46.96854" lon="5.99787">
        <ele>406.774902</ele>
        <time>2008-11-23T12:17:27Z</time>
      </trkpt>
      <trkpt lat="46.96825" lon="5.99752">
        <ele>409.178345</ele>
        <time>2008-11-23T12:17:48Z</time>
      </trkpt>
      <trkpt lat="46.96828" lon="5.99744">
        <ele>412.542847</ele>
        <time>2008-11-23T12:18:05Z</time>
      </trkpt>
      <trkpt lat="46.96828" lon="5.9974">
        <ele>413.504272</ele>
        <time>2008-11-23T12:18:09Z</time>
      </trkpt>
      <trkpt lat="46.96807" lon="5.99735">
        <ele>416.868896</ele>
        <time>2008-11-23T12:18:22Z</time>
      </trkpt>
      <trkpt lat="46.9679" lon="5.99724">
        <ele>420.714111</ele>
        <time>2008-11-23T12:18:46Z</time>
      </trkpt>
      <trkpt lat="46.96777" lon="5.99719">
        <ele>423.598022</ele>
        <time>2008-11-23T12:19:06Z</time>
      </trkpt>
      <trkpt lat="46.96794" lon="5.99723">
        <ele>426.482056</ele>
        <time>2008-11-23T12:19:24Z</time>
      </trkpt>
      <trkpt lat="46.96787" lon="5.99717">
        <ele>429.846558</ele>
        <time>2008-11-23T12:19:47Z</time>
      </trkpt>
      <trkpt lat="46.96795" lon="5.99712">
        <ele>432.730713</ele>
        <time>2008-11-23T12:20:11Z</time>
      </trkpt>
      <trkpt lat="46.96791" lon="5.99709">
        <ele>436.095215</ele>
        <time>2008-11-23T12:20:30Z</time>
      </trkpt>
      <trkpt lat="46.96768" lon="5.99713">
        <ele>439.459717</ele>
        <time>2008-11-23T12:20:51Z</time>
      </trkpt>
      <trkpt lat="46.96751" lon="5.99707">
        <ele>442.824463</ele>
        <time>2008-11-23T12:21:15Z</time>
      </trkpt>
      <trkpt lat="46.96733" lon="5.9969">
        <ele>446.669678</ele>
        <time>2008-11-23T12:21:33Z</time>
      </trkpt>
      <trkpt lat="46.96744" lon="5.99671">
        <ele>450.034424</ele>
        <time>2008-11-23T12:22:06Z</time>
      </trkpt>
      <trkpt lat="46.96758" lon="5.9966">
        <ele>454.84082</ele>
        <time>2008-11-23T12:22:23Z</time>
      </trkpt>
      <trkpt lat="46.96778" lon="5.99657">
        <ele>458.205566</ele>
        <time>2008-11-23T12:22:53Z</time>
      </trkpt>
      <trkpt lat="46.96774" lon="5.99648">
        <ele>461.57019</ele>
        <time>2008-11-23T12:23:14Z</time>
      </trkpt>
      <trkpt lat="46.96773" lon="5.99631">
        <ele>464.454102</ele>
        <time>2008-11-23T12:23:38Z</time>
      </trkpt>
      <trkpt lat="46.96758" lon="5.99617">
        <ele>467.338135</ele>
        <time>2008-11-23T12:24:03Z</time>
      </trkpt>
      <trkpt lat="46.96755" lon="5.99606">
        <ele>470.702637</ele>
        <time>2008-11-23T12:24:22Z</time>
      </trkpt>
      <trkpt lat="46.96749" lon="5.99598">
        <ele>473.58667</ele>
        <time>2008-11-23T12:24:43Z</time>
      </trkpt>
      <trkpt lat="46.96732" lon="5.99587">
        <ele>476.951294</ele>
        <time>2008-11-23T12:25:08Z</time>
      </trkpt>
      <trkpt lat="46.96706" lon="5.99584">
        <ele>480.315918</ele>
        <time>2008-11-23T12:25:29Z</time>
      </trkpt>
      <trkpt lat="46.9668" lon="5.99575">
        <ele>483.199829</ele>
        <time>2008-11-23T12:25:56Z</time>
      </trkpt>
      <trkpt lat="46.96669" lon="5.99551">
        <ele>486.564453</ele>
        <time>2008-11-23T12:26:24Z</time>
      </trkpt>
      <trkpt lat="46.96678" lon="5.99528">
        <ele>489.929077</ele>
        <time>2008-11-23T12:27:02Z</time>
      </trkpt>
      <trkpt lat="46.96691" lon="5.99515">
        <ele>493.293579</ele>
        <time>2008-11-23T12:27:23Z</time>
      </trkpt>
      <trkpt lat="46.96683" lon="5.99513">
        <ele>496.658325</ele>
        <time>2008-11-23T12:27:50Z</time>
      </trkpt>
      <trkpt lat="46.96689" lon="5.99504">
        <ele>499.542236</ele>
        <time>2008-11-23T12:28:12Z</time>
      </trkpt>
      <trkpt lat="46.9669" lon="5.99496">
        <ele>502.906738</ele>
        <time>2008-11-23T12:28:34Z</time>
      </trkpt>
      <trkpt lat="46.96689" lon="5.99479">
        <ele>505.790894</ele>
        <time>2008-11-23T12:29:06Z</time>
      </trkpt>
      <trkpt lat="46.96669" lon="5.99466">
        <ele>509.155396</ele>
        <time>2008-11-23T12:29:32Z</time>
      </trkpt>
      <trkpt lat="46.96672" lon="5.99458">
        <ele>512.52002</ele>
        <time>2008-11-23T12:30:01Z</time>
      </trkpt>
      <trkpt lat="46.96658" lon="5.99461">
        <ele>515.404053</ele>
        <time>2008-11-23T12:30:23Z</time>
      </trkpt>
      <trkpt lat="46.96642" lon="5.99467">
        <ele>518.287842</ele>
        <time>2008-11-23T12:30:48Z</time>
      </trkpt>
      <trkpt lat="46.96635" lon="5.9948">
        <ele>522.133179</ele>
        <time>2008-11-23T12:31:11Z</time>
      </trkpt>
      <trkpt lat="46.9662" lon="5.99498">
        <ele>525.978394</ele>
        <time>2008-11-23T12:31:43Z</time>
      </trkpt>
      <trkpt lat="46.96632" lon="5.99509">
        <ele>528.862549</ele>
        <time>2008-11-23T12:32:36Z</time>
      </trkpt>
      <trkpt lat="46.96622" lon="5.99525">
        <ele>532.227051</ele>
        <time>2008-11-23T12:32:57Z</time>
      </trkpt>
      <trkpt lat="46.96615" lon="5.99529">
        <ele>535.110962</ele>
        <time>2008-11-23T12:33:19Z</time>
      </trkpt>
      <trkpt lat="46.96613" lon="5.99522">
        <ele>537.994995</ele>
        <time>2008-11-23T12:33:41Z</time>
      </trkpt>
      <trkpt lat="46.96608" lon="5.99516">
        <ele>541.359497</ele>
        <time>2008-11-23T12:34:02Z</time>
      </trkpt>
      <trkpt lat="46.966" lon="5.9951">
        <ele>544.243652</ele>
        <time>2008-11-23T12:34:26Z</time>
      </trkpt>
      <trkpt lat="46.96594" lon="5.99496">
        <ele>547.608154</ele>
        <time>2008-11-23T12:34:50Z</time>
      </trkpt>
      <trkpt lat="46.96576" lon="5.99507">
        <ele>550.492188</ele>
        <time>2008-11-23T12:35:13Z</time>
      </trkpt>
      <trkpt lat="46.96562" lon="5.99523">
        <ele>553.856689</ele>
        <time>2008-11-23T12:35:41Z</time>
      </trkpt>
      <trkpt lat="46.96564" lon="5.99534">
        <ele>556.740723</ele>
        <time>2008-11-23T12:36:02Z</time>
      </trkpt>
      <trkpt lat="46.96566" lon="5.99549">
        <ele>560.105225</ele>
        <time>2008-11-23T12:36:24Z</time>
      </trkpt>
      <trkpt lat="46.96567" lon="5.99564">
        <ele>563.469971</ele>
        <time>2008-11-23T12:36:53Z</time>
      </trkpt>
      <trkpt lat="46.9655" lon="5.99572">
        <ele>566.35376</ele>
        <time>2008-11-23T12:37:17Z</time>
      </trkpt>
      <trkpt lat="46.96562" lon="5.99564">
        <ele>566.35376</ele>
        <time>2008-11-23T12:39:29Z</time>
      </trkpt>
      <trkpt lat="46.96577" lon="5.99569">
        <ele>566.834473</ele>
        <time>2008-11-23T12:39:52Z</time>
      </trkpt>
      <trkpt lat="46.96554" lon="5.99567">
        <ele>567.795654</ele>
        <time>2008-11-23T12:40:08Z</time>
      </trkpt>
      <trkpt lat="46.96572" lon="5.99569">
        <ele>568.276367</ele>
        <time>2008-11-23T12:42:09Z</time>
      </trkpt>
      <trkpt lat="46.96565" lon="5.99577">
        <ele>568.75708</ele>
        <time>2008-11-23T12:42:42Z</time>
      </trkpt>
      <trkpt lat="46.96565" lon="5.99574">
        <ele>568.75708</ele>
        <time>2008-11-23T12:43:01Z</time>
      </trkpt>
      <trkpt lat="46.96555" lon="5.9957">
        <ele>569.237793</ele>
        <time>2008-11-23T12:43:20Z</time>
      </trkpt>
      <trkpt lat="46.96574" lon="5.99566">
        <ele>569.718506</ele>
        <time>2008-11-23T12:43:59Z</time>
      </trkpt>
      <trkpt lat="46.96573" lon="5.99558">
        <ele>571.1604</ele>
        <time>2008-11-23T12:45:11Z</time>
      </trkpt>
      <trkpt lat="46.96586" lon="5.99567">
        <ele>571.1604</ele>
        <time>2008-11-23T12:46:22Z</time>
      </trkpt>
      <trkpt lat="46.9658" lon="5.99569">
        <ele>572.602539</ele>
        <time>2008-11-23T12:47:04Z</time>
      </trkpt>
      <trkpt lat="46.96563" lon="5.99559">
        <ele>575.967041</ele>
        <time>2008-11-23T12:50:33Z</time>
      </trkpt>
      <trkpt lat="46.96548" lon="5.99574">
        <ele>579.331543</ele>
        <time>2008-11-23T12:52:07Z</time>
      </trkpt>
      <trkpt lat="46.96545" lon="5.99577">
        <ele>582.215576</ele>
        <time>2008-11-23T12:52:41Z</time>
      </trkpt>
      <trkpt lat="46.96538" lon="5.9957">
        <ele>585.099609</ele>
        <time>2008-11-23T12:53:08Z</time>
      </trkpt>
      <trkpt lat="46.96528" lon="5.99563">
        <ele>588.464355</ele>
        <time>2008-11-23T12:53:34Z</time>
      </trkpt>
      <trkpt lat="46.96527" lon="5.99561">
        <ele>591.348145</ele>
        <time>2008-11-23T12:53:56Z</time>
      </trkpt>
      <trkpt lat="46.96517" lon="5.99548">
        <ele>594.712646</ele>
        <time>2008-11-23T12:54:32Z</time>
      </trkpt>
      <trkpt lat="46.96509" lon="5.9955">
        <ele>597.59668</ele>
        <time>2008-11-23T12:55:01Z</time>
      </trkpt>
      <trkpt lat="46.96513" lon="5.99535">
        <ele>600.961182</ele>
        <time>2008-11-23T12:55:40Z</time>
      </trkpt>
      <trkpt lat="46.96511" lon="5.99514">
        <ele>603.845215</ele>
        <time>2008-11-23T12:56:09Z</time>
      </trkpt>
      <trkpt lat="46.96513" lon="5.995">
        <ele>607.690674</ele>
        <time>2008-11-23T12:56:41Z</time>
      </trkpt>
      <trkpt lat="46.96516" lon="5.99501">
        <ele>610.574463</ele>
        <time>2008-11-23T12:57:00Z</time>
      </trkpt>
      <trkpt lat="46.9652" lon="5.99492">
        <ele>613.458496</ele>
        <time>2008-11-23T12:57:33Z</time>
      </trkpt>
      <trkpt lat="46.96518" lon="5.99483">
        <ele>616.822998</ele>
        <time>2008-11-23T12:57:53Z</time>
      </trkpt>
      <trkpt lat="46.96519" lon="5.99476">
        <ele>620.187744</ele>
        <time>2008-11-23T12:58:14Z</time>
      </trkpt>
      <trkpt lat="46.96517" lon="5.99466">
        <ele>623.071777</ele>
        <time>2008-11-23T12:58:39Z</time>
      </trkpt>
      <trkpt lat="46.96518" lon="5.99461">
        <ele>625.955566</ele>
        <time>2008-11-23T12:58:58Z</time>
      </trkpt>
      <trkpt lat="46.9651" lon="5.99457">
        <ele>629.320068</ele>
        <time>2008-11-23T12:59:20Z</time>
      </trkpt>
      <trkpt lat="46.96493" lon="5.99455">
        <ele>632.684814</ele>
        <time>2008-11-23T12:59:44Z</time>
      </trkpt>
      <trkpt lat="46.96488" lon="5.99461">
        <ele>635.568604</ele>
        <time>2008-11-23T13:00:01Z</time>
      </trkpt>
      <trkpt lat="46.96485" lon="5.99447">
        <ele>638.933594</ele>
        <time>2008-11-23T13:00:26Z</time>
      </trkpt>
      <trkpt lat="46.96495" lon="5.99433">
        <ele>642.298096</ele>
        <time>2008-11-23T13:00:54Z</time>
      </trkpt>
      <trkpt lat="46.96493" lon="5.99424">
        <ele>645.181885</ele>
        <time>2008-11-23T13:01:18Z</time>
      </trkpt>
      <trkpt lat="46.96489" lon="5.99418">
        <ele>646.624023</ele>
        <time>2008-11-23T13:01:25Z</time>
      </trkpt>
      <trkpt lat="46.96478" lon="5.99413">
        <ele>649.507813</ele>
        <time>2008-11-23T13:01:41Z</time>
      </trkpt>
      <trkpt lat="46.96477" lon="5.99413">
        <ele>650.469238</ele>
        <time>2008-11-23T13:01:45Z</time>
      </trkpt>
      <trkpt lat="46.96469" lon="5.9942">
        <ele>653.353271</ele>
        <time>2008-11-23T13:02:16Z</time>
      </trkpt>
      <trkpt lat="46.96471" lon="5.99408">
        <ele>656.717773</ele>
        <time>2008-11-23T13:02:41Z</time>
      </trkpt>
      <trkpt lat="46.9647" lon="5.99408">
        <ele>659.601807</ele>
        <time>2008-11-23T13:02:57Z</time>
      </trkpt>
      <trkpt lat="46.96462" lon="5.994">
        <ele>662.966309</ele>
        <time>2008-11-23T13:03:22Z</time>
      </trkpt>
      <trkpt lat="46.96463" lon="5.994">
        <ele>663.447021</ele>
        <time>2008-11-23T13:03:23Z</time>
      </trkpt>
      <trkpt lat="46.96454" lon="5.99382">
        <ele>666.330811</ele>
        <time>2008-11-23T13:03:59Z</time>
      </trkpt>
      <trkpt lat="46.96447" lon="5.99386">
        <ele>669.695801</ele>
        <time>2008-11-23T13:04:16Z</time>
      </trkpt>
      <trkpt lat="46.96425" lon="5.994">
        <ele>673.060303</ele>
        <time>2008-11-23T13:04:54Z</time>
      </trkpt>
      <trkpt lat="46.9642" lon="5.99416">
        <ele>675.463379</ele>
        <time>2008-11-23T13:05:12Z</time>
      </trkpt>
      <trkpt lat="46.96413" lon="5.99424">
        <ele>678.347412</ele>
        <time>2008-11-23T13:05:28Z</time>
      </trkpt>
      <trkpt lat="46.96407" lon="5.99445">
        <ele>681.711914</ele>
        <time>2008-11-23T13:05:55Z</time>
      </trkpt>
      <trkpt lat="46.96407" lon="5.99454">
        <ele>683.634521</ele>
        <time>2008-11-23T13:06:10Z</time>
      </trkpt>
      <trkpt lat="46.96419" lon="5.99494">
        <ele>686.999268</ele>
        <time>2008-11-23T13:06:57Z</time>
      </trkpt>
      <trkpt lat="46.96419" lon="5.99504">
        <ele>687.960693</ele>
        <time>2008-11-23T13:07:14Z</time>
      </trkpt>
      <trkpt lat="46.96424" lon="5.9951">
        <ele>688.441406</ele>
        <time>2008-11-23T13:07:20Z</time>
      </trkpt>
      <trkpt lat="46.96428" lon="5.99519">
        <ele>689.402588</ele>
        <time>2008-11-23T13:07:32Z</time>
      </trkpt>
      <trkpt lat="46.96423" lon="5.99533">
        <ele>689.402588</ele>
        <time>2008-11-23T13:07:46Z</time>
      </trkpt>
      <trkpt lat="46.96414" lon="5.99564">
        <ele>692.286621</ele>
        <time>2008-11-23T13:08:09Z</time>
      </trkpt>
      <trkpt lat="46.96411" lon="5.99588">
        <ele>695.651123</ele>
        <time>2008-11-23T13:08:29Z</time>
      </trkpt>
      <trkpt lat="46.9641" lon="5.99589">
        <ele>695.651123</ele>
        <time>2008-11-23T13:08:30Z</time>
      </trkpt>
      <trkpt lat="46.964" lon="5.99605">
        <ele>697.093018</ele>
        <time>2008-11-23T13:08:51Z</time>
      </trkpt>
      <trkpt lat="46.96397" lon="5.99618">
        <ele>697.57373</ele>
        <time>2008-11-23T13:09:07Z</time>
      </trkpt>
      <trkpt lat="46.96389" lon="5.99635">
        <ele>696.612549</ele>
        <time>2008-11-23T13:09:22Z</time>
      </trkpt>
      <trkpt lat="46.96401" lon="5.99664">
        <ele>693.247803</ele>
        <time>2008-11-23T13:09:45Z</time>
      </trkpt>
      <trkpt lat="46.96411" lon="5.99673">
        <ele>693.247803</ele>
        <time>2008-11-23T13:09:55Z</time>
      </trkpt>
      <trkpt lat="46.96416" lon="5.99678">
        <ele>692.767334</ele>
        <time>2008-11-23T13:10:00Z</time>
      </trkpt>
      <trkpt lat="46.9642" lon="5.99687">
        <ele>693.728516</ele>
        <time>2008-11-23T13:10:10Z</time>
      </trkpt>
      <trkpt lat="46.96424" lon="5.99705">
        <ele>697.093018</ele>
        <time>2008-11-23T13:10:27Z</time>
      </trkpt>
      <trkpt lat="46.96427" lon="5.99717">
        <ele>699.977051</ele>
        <time>2008-11-23T13:10:43Z</time>
      </trkpt>
      <trkpt lat="46.96436" lon="5.99739">
        <ele>699.977051</ele>
        <time>2008-11-23T13:11:03Z</time>
      </trkpt>
      <trkpt lat="46.96434" lon="5.99752">
        <ele>700.458008</ele>
        <time>2008-11-23T13:11:15Z</time>
      </trkpt>
      <trkpt lat="46.96431" lon="5.99759">
        <ele>700.458008</ele>
        <time>2008-11-23T13:11:20Z</time>
      </trkpt>
      <trkpt lat="46.96436" lon="5.9978">
        <ele>700.458008</ele>
        <time>2008-11-23T13:11:29Z</time>
      </trkpt>
      <trkpt lat="46.96446" lon="5.99806">
        <ele>701.899902</ele>
        <time>2008-11-23T13:11:57Z</time>
      </trkpt>
      <trkpt lat="46.9646" lon="5.99822">
        <ele>701.419189</ele>
        <time>2008-11-23T13:12:23Z</time>
      </trkpt>
      <trkpt lat="46.96463" lon="5.99844">
        <ele>701.899902</ele>
        <time>2008-11-23T13:12:42Z</time>
      </trkpt>
      <trkpt lat="46.96464" lon="5.99869">
        <ele>702.380371</ele>
        <time>2008-11-23T13:13:00Z</time>
      </trkpt>
      <trkpt lat="46.96467" lon="5.99936">
        <ele>701.419189</ele>
        <time>2008-11-23T13:13:48Z</time>
      </trkpt>
      <trkpt lat="46.96465" lon="5.9995">
        <ele>700.938477</ele>
        <time>2008-11-23T13:13:59Z</time>
      </trkpt>
      <trkpt lat="46.96464" lon="5.99972">
        <ele>700.458008</ele>
        <time>2008-11-23T13:14:13Z</time>
      </trkpt>
      <trkpt lat="46.96467" lon="5.99986">
        <ele>699.977051</ele>
        <time>2008-11-23T13:14:26Z</time>
      </trkpt>
      <trkpt lat="46.96472" lon="6.00014">
        <ele>699.496338</ele>
        <time>2008-11-23T13:14:53Z</time>
      </trkpt>
      <trkpt lat="46.96476" lon="6.00038">
        <ele>699.977051</ele>
        <time>2008-11-23T13:15:19Z</time>
      </trkpt>
      <trkpt lat="46.965" lon="6.0007">
        <ele>699.496338</ele>
        <time>2008-11-23T13:15:54Z</time>
      </trkpt>
      <trkpt lat="46.96522" lon="6.00095">
        <ele>699.977051</ele>
        <time>2008-11-23T13:16:16Z</time>
      </trkpt>
      <trkpt lat="46.96527" lon="6.00112">
        <ele>701.419189</ele>
        <time>2008-11-23T13:16:33Z</time>
      </trkpt>
      <trkpt lat="46.96531" lon="6.00125">
        <ele>702.380371</ele>
        <time>2008-11-23T13:16:48Z</time>
      </trkpt>
      <trkpt lat="46.96554" lon="6.00173">
        <ele>704.783691</ele>
        <time>2008-11-23T13:17:42Z</time>
      </trkpt>
      <trkpt lat="46.96576" lon="6.00216">
        <ele>708.148438</ele>
        <time>2008-11-23T13:18:31Z</time>
      </trkpt>
      <trkpt lat="46.96591" lon="6.00235">
        <ele>707.667725</ele>
        <time>2008-11-23T13:19:19Z</time>
      </trkpt>
      <trkpt lat="46.96581" lon="6.00262">
        <ele>708.628906</ele>
        <time>2008-11-23T13:20:55Z</time>
      </trkpt>
      <trkpt lat="46.96583" lon="6.0027">
        <ele>708.628906</ele>
        <time>2008-11-23T13:21:51Z</time>
      </trkpt>
      <trkpt lat="46.96583" lon="6.00266">
        <ele>707.667725</ele>
        <time>2008-11-23T13:22:12Z</time>
      </trkpt>
      <trkpt lat="46.96588" lon="6.00269">
        <ele>710.551514</ele>
        <time>2008-11-23T13:35:43Z</time>
      </trkpt>
      <trkpt lat="46.96584" lon="6.00242">
        <ele>707.667725</ele>
        <time>2008-11-23T13:36:08Z</time>
      </trkpt>
      <trkpt lat="46.96561" lon="6.00202">
        <ele>705.264404</ele>
        <time>2008-11-23T13:36:43Z</time>
      </trkpt>
      <trkpt lat="46.96537" lon="6.00152">
        <ele>701.899902</ele>
        <time>2008-11-23T13:37:29Z</time>
      </trkpt>
      <trkpt lat="46.9652" lon="6.00104">
        <ele>698.534912</ele>
        <time>2008-11-23T13:38:02Z</time>
      </trkpt>
      <trkpt lat="46.96458" lon="5.99861">
        <ele>698.534912</ele>
        <time>2008-11-23T13:41:33Z</time>
      </trkpt>
      <trkpt lat="46.96452" lon="5.99809">
        <ele>698.054443</ele>
        <time>2008-11-23T13:42:10Z</time>
      </trkpt>
      <trkpt lat="46.96424" lon="5.99716">
        <ele>695.17041</ele>
        <time>2008-11-23T13:43:25Z</time>
      </trkpt>
      <trkpt lat="46.9642" lon="5.99707">
        <ele>691.805908</ele>
        <time>2008-11-23T13:43:34Z</time>
      </trkpt>
      <trkpt lat="46.9642" lon="5.99706">
        <ele>691.805908</ele>
        <time>2008-11-23T13:43:35Z</time>
      </trkpt>
      <trkpt lat="46.96416" lon="5.99682">
        <ele>688.441406</ele>
        <time>2008-11-23T13:44:04Z</time>
      </trkpt>
      <trkpt lat="46.96394" lon="5.99657">
        <ele>691.325195</ele>
        <time>2008-11-23T13:44:33Z</time>
      </trkpt>
      <trkpt lat="46.96394" lon="5.99627">
        <ele>694.209229</ele>
        <time>2008-11-23T13:45:08Z</time>
      </trkpt>
      <trkpt lat="46.96411" lon="5.99601">
        <ele>691.325195</ele>
        <time>2008-11-23T13:45:40Z</time>
      </trkpt>
      <trkpt lat="46.96422" lon="5.99587">
        <ele>687.960693</ele>
        <time>2008-11-23T13:45:53Z</time>
      </trkpt>
      <trkpt lat="46.96424" lon="5.99551">
        <ele>685.076904</ele>
        <time>2008-11-23T13:46:12Z</time>
      </trkpt>
      <trkpt lat="46.96417" lon="5.99497">
        <ele>681.711914</ele>
        <time>2008-11-23T13:47:06Z</time>
      </trkpt>
      <trkpt lat="46.96406" lon="5.99452">
        <ele>678.828125</ele>
        <time>2008-11-23T13:47:32Z</time>
      </trkpt>
      <trkpt lat="46.9641" lon="5.99431">
        <ele>675.463379</ele>
        <time>2008-11-23T13:47:46Z</time>
      </trkpt>
      <trkpt lat="46.96419" lon="5.99411">
        <ele>672.098877</ele>
        <time>2008-11-23T13:48:00Z</time>
      </trkpt>
      <trkpt lat="46.96433" lon="5.99389">
        <ele>669.215088</ele>
        <time>2008-11-23T13:48:29Z</time>
      </trkpt>
      <trkpt lat="46.96453" lon="5.99382">
        <ele>665.850342</ele>
        <time>2008-11-23T13:48:54Z</time>
      </trkpt>
      <trkpt lat="46.96463" lon="5.99386">
        <ele>662.485596</ele>
        <time>2008-11-23T13:49:09Z</time>
      </trkpt>
      <trkpt lat="46.96472" lon="5.99399">
        <ele>659.601807</ele>
        <time>2008-11-23T13:49:26Z</time>
      </trkpt>
      <trkpt lat="46.96466" lon="5.99409">
        <ele>656.717773</ele>
        <time>2008-11-23T13:49:41Z</time>
      </trkpt>
      <trkpt lat="46.96463" lon="5.99408">
        <ele>653.353271</ele>
        <time>2008-11-23T13:49:58Z</time>
      </trkpt>
      <trkpt lat="46.96473" lon="5.99415">
        <ele>649.988525</ele>
        <time>2008-11-23T13:50:17Z</time>
      </trkpt>
      <trkpt lat="46.96476" lon="5.99417">
        <ele>647.104492</ele>
        <time>2008-11-23T13:50:41Z</time>
      </trkpt>
      <trkpt lat="46.96478" lon="5.99424">
        <ele>643.73999</ele>
        <time>2008-11-23T13:51:11Z</time>
      </trkpt>
      <trkpt lat="46.96479" lon="5.99437">
        <ele>640.375488</ele>
        <time>2008-11-23T13:51:32Z</time>
      </trkpt>
      <trkpt lat="46.96481" lon="5.99452">
        <ele>637.491455</ele>
        <time>2008-11-23T13:52:01Z</time>
      </trkpt>
      <trkpt lat="46.96494" lon="5.99454">
        <ele>634.126709</ele>
        <time>2008-11-23T13:52:56Z</time>
      </trkpt>
      <trkpt lat="46.96502" lon="5.99458">
        <ele>631.24292</ele>
        <time>2008-11-23T13:53:19Z</time>
      </trkpt>
      <trkpt lat="46.96491" lon="5.99481">
        <ele>627.878174</ele>
        <time>2008-11-23T13:53:39Z</time>
      </trkpt>
      <trkpt lat="46.96492" lon="5.99503">
        <ele>624.513672</ele>
        <time>2008-11-23T13:54:00Z</time>
      </trkpt>
      <trkpt lat="46.96504" lon="5.99514">
        <ele>621.629639</ele>
        <time>2008-11-23T13:54:29Z</time>
      </trkpt>
      <trkpt lat="46.965" lon="5.99544">
        <ele>618.745605</ele>
        <time>2008-11-23T13:55:12Z</time>
      </trkpt>
      <trkpt lat="46.96509" lon="5.9955">
        <ele>615.381104</ele>
        <time>2008-11-23T13:55:32Z</time>
      </trkpt>
      <trkpt lat="46.96524" lon="5.9956">
        <ele>612.49707</ele>
        <time>2008-11-23T13:56:03Z</time>
      </trkpt>
      <trkpt lat="46.96528" lon="5.9957">
        <ele>609.132568</ele>
        <time>2008-11-23T13:56:29Z</time>
      </trkpt>
      <trkpt lat="46.9654" lon="5.99567">
        <ele>606.248535</ele>
        <time>2008-11-23T13:56:51Z</time>
      </trkpt>
      <trkpt lat="46.96549" lon="5.99565">
        <ele>602.883789</ele>
        <time>2008-11-23T13:57:08Z</time>
      </trkpt>
      <trkpt lat="46.96556" lon="5.99566">
        <ele>600</ele>
        <time>2008-11-23T13:57:21Z</time>
      </trkpt>
      <trkpt lat="46.96556" lon="5.99571">
        <ele>596.635498</ele>
        <time>2008-11-23T13:57:34Z</time>
      </trkpt>
      <trkpt lat="46.96565" lon="5.99573">
        <ele>593.751465</ele>
        <time>2008-11-23T13:57:51Z</time>
      </trkpt>
      <trkpt lat="46.96575" lon="5.99589">
        <ele>593.751465</ele>
        <time>2008-11-23T13:58:33Z</time>
      </trkpt>
      <trkpt lat="46.96578" lon="5.99669">
        <ele>597.115967</ele>
        <time>2008-11-23T14:00:56Z</time>
      </trkpt>
      <trkpt lat="46.96593" lon="5.99708">
        <ele>596.635498</ele>
        <time>2008-11-23T14:01:37Z</time>
      </trkpt>
      <trkpt lat="46.96636" lon="5.99883">
        <ele>597.59668</ele>
        <time>2008-11-23T14:03:57Z</time>
      </trkpt>
      <trkpt lat="46.96651" lon="5.99912">
        <ele>597.115967</ele>
        <time>2008-11-23T14:04:19Z</time>
      </trkpt>
      <trkpt lat="46.9666" lon="5.99928">
        <ele>597.115967</ele>
        <time>2008-11-23T14:04:33Z</time>
      </trkpt>
      <trkpt lat="46.96667" lon="5.99941">
        <ele>597.115967</ele>
        <time>2008-11-23T14:04:45Z</time>
      </trkpt>
      <trkpt lat="46.96672" lon="5.9996">
        <ele>598.077393</ele>
        <time>2008-11-23T14:04:58Z</time>
      </trkpt>
      <trkpt lat="46.96679" lon="5.99975">
        <ele>599.038574</ele>
        <time>2008-11-23T14:05:12Z</time>
      </trkpt>
      <trkpt lat="46.96699" lon="5.99999">
        <ele>598.557861</ele>
        <time>2008-11-23T14:05:39Z</time>
      </trkpt>
      <trkpt lat="46.96709" lon="6.00024">
        <ele>596.154785</ele>
        <time>2008-11-23T14:06:00Z</time>
      </trkpt>
      <trkpt lat="46.96714" lon="6.00032">
        <ele>596.154785</ele>
        <time>2008-11-23T14:06:25Z</time>
      </trkpt>
      <trkpt lat="46.96737" lon="6.00052">
        <ele>597.59668</ele>
        <time>2008-11-23T14:06:55Z</time>
      </trkpt>
      <trkpt lat="46.96744" lon="6.00059">
        <ele>597.59668</ele>
        <time>2008-11-23T14:07:02Z</time>
      </trkpt>
      <trkpt lat="46.96749" lon="6.00065">
        <ele>598.077393</ele>
        <time>2008-11-23T14:07:10Z</time>
      </trkpt>
      <trkpt lat="46.96756" lon="6.00143">
        <ele>599.519287</ele>
        <time>2008-11-23T14:08:09Z</time>
      </trkpt>
      <trkpt lat="46.96758" lon="6.00151">
        <ele>599.519287</ele>
        <time>2008-11-23T14:08:14Z</time>
      </trkpt>
      <trkpt lat="46.96755" lon="6.00178">
        <ele>597.59668</ele>
        <time>2008-11-23T14:08:50Z</time>
      </trkpt>
      <trkpt lat="46.96724" lon="6.00316">
        <ele>595.674072</ele>
        <time>2008-11-23T14:10:16Z</time>
      </trkpt>
      <trkpt lat="46.96699" lon="6.0038">
        <ele>599.038574</ele>
        <time>2008-11-23T14:11:14Z</time>
      </trkpt>
      <trkpt lat="46.96682" lon="6.00448">
        <ele>595.674072</ele>
        <time>2008-11-23T14:12:11Z</time>
      </trkpt>
      <trkpt lat="46.96648" lon="6.00481">
        <ele>592.790283</ele>
        <time>2008-11-23T14:12:55Z</time>
      </trkpt>
      <trkpt lat="46.96615" lon="6.0051">
        <ele>589.425537</ele>
        <time>2008-11-23T14:13:43Z</time>
      </trkpt>
      <trkpt lat="46.96571" lon="6.00571">
        <ele>586.541504</ele>
        <time>2008-11-23T14:14:43Z</time>
      </trkpt>
      <trkpt lat="46.96569" lon="6.00595">
        <ele>583.176758</ele>
        <time>2008-11-23T14:15:22Z</time>
      </trkpt>
      <trkpt lat="46.96566" lon="6.00619">
        <ele>579.812256</ele>
        <time>2008-11-23T14:15:44Z</time>
      </trkpt>
      <trkpt lat="46.96567" lon="6.00642">
        <ele>576.928467</ele>
        <time>2008-11-23T14:16:04Z</time>
      </trkpt>
      <trkpt lat="46.96571" lon="6.00665">
        <ele>573.563965</ele>
        <time>2008-11-23T14:16:26Z</time>
      </trkpt>
      <trkpt lat="46.96568" lon="6.00685">
        <ele>570.679688</ele>
        <time>2008-11-23T14:16:44Z</time>
      </trkpt>
      <trkpt lat="46.96552" lon="6.0069">
        <ele>569.718506</ele>
        <time>2008-11-23T14:17:00Z</time>
      </trkpt>
      <trkpt lat="46.96549" lon="6.00698">
        <ele>566.834473</ele>
        <time>2008-11-23T14:17:54Z</time>
      </trkpt>
      <trkpt lat="46.9654" lon="6.00708">
        <ele>563.469971</ele>
        <time>2008-11-23T14:18:09Z</time>
      </trkpt>
      <trkpt lat="46.96515" lon="6.00727">
        <ele>560.585938</ele>
        <time>2008-11-23T14:18:26Z</time>
      </trkpt>
      <trkpt lat="46.96514" lon="6.00729">
        <ele>560.585938</ele>
        <time>2008-11-23T14:18:27Z</time>
      </trkpt>
      <trkpt lat="46.9649" lon="6.00754">
        <ele>557.221436</ele>
        <time>2008-11-23T14:18:53Z</time>
      </trkpt>
      <trkpt lat="46.96488" lon="6.00756">
        <ele>557.221436</ele>
        <time>2008-11-23T14:18:55Z</time>
      </trkpt>
      <trkpt lat="46.9647" lon="6.00771">
        <ele>553.375977</ele>
        <time>2008-11-23T14:19:20Z</time>
      </trkpt>
      <trkpt lat="46.96448" lon="6.00783">
        <ele>550.011475</ele>
        <time>2008-11-23T14:19:43Z</time>
      </trkpt>
      <trkpt lat="46.96424" lon="6.00794">
        <ele>546.646851</ele>
        <time>2008-11-23T14:20:07Z</time>
      </trkpt>
      <trkpt lat="46.96399" lon="6.00812">
        <ele>543.762817</ele>
        <time>2008-11-23T14:20:36Z</time>
      </trkpt>
      <trkpt lat="46.96379" lon="6.00825">
        <ele>540.398315</ele>
        <time>2008-11-23T14:20:57Z</time>
      </trkpt>
      <trkpt lat="46.96354" lon="6.00822">
        <ele>537.033691</ele>
        <time>2008-11-23T14:21:22Z</time>
      </trkpt>
      <trkpt lat="46.96325" lon="6.00837">
        <ele>532.707764</ele>
        <time>2008-11-23T14:21:50Z</time>
      </trkpt>
      <trkpt lat="46.96317" lon="6.00847">
        <ele>532.707764</ele>
        <time>2008-11-23T14:22:11Z</time>
      </trkpt>
      <trkpt lat="46.96297" lon="6.00869">
        <ele>529.82373</ele>
        <time>2008-11-23T14:22:33Z</time>
      </trkpt>
      <trkpt lat="46.96274" lon="6.00882">
        <ele>526.459106</ele>
        <time>2008-11-23T14:23:01Z</time>
      </trkpt>
      <trkpt lat="46.96254" lon="6.00899">
        <ele>524.536499</ele>
        <time>2008-11-23T14:23:28Z</time>
      </trkpt>
      <trkpt lat="46.96244" lon="6.00917">
        <ele>523.575195</ele>
        <time>2008-11-23T14:23:46Z</time>
      </trkpt>
      <trkpt lat="46.96237" lon="6.00939">
        <ele>522.613892</ele>
        <time>2008-11-23T14:23:59Z</time>
      </trkpt>
      <trkpt lat="46.96239" lon="6.00962">
        <ele>522.133179</ele>
        <time>2008-11-23T14:24:12Z</time>
      </trkpt>
      <trkpt lat="46.9624" lon="6.0098">
        <ele>521.652588</ele>
        <time>2008-11-23T14:24:27Z</time>
      </trkpt>
      <trkpt lat="46.9623" lon="6.00979">
        <ele>521.171997</ele>
        <time>2008-11-23T14:24:44Z</time>
      </trkpt>
      <trkpt lat="46.96229" lon="6.01011">
        <ele>520.210571</ele>
        <time>2008-11-23T14:25:02Z</time>
      </trkpt>
      <trkpt lat="46.9623" lon="6.01039">
        <ele>519.729858</ele>
        <time>2008-11-23T14:25:20Z</time>
      </trkpt>
      <trkpt lat="46.96236" lon="6.01074">
        <ele>516.845947</ele>
        <time>2008-11-23T14:25:43Z</time>
      </trkpt>
      <trkpt lat="46.96236" lon="6.01076">
        <ele>516.845947</ele>
        <time>2008-11-23T14:25:44Z</time>
      </trkpt>
      <trkpt lat="46.96242" lon="6.01109">
        <ele>513.962036</ele>
        <time>2008-11-23T14:26:04Z</time>
      </trkpt>
      <trkpt lat="46.96239" lon="6.01137">
        <ele>511.078003</ele>
        <time>2008-11-23T14:26:28Z</time>
      </trkpt>
      <trkpt lat="46.96265" lon="6.01213">
        <ele>507.713501</ele>
        <time>2008-11-23T14:27:25Z</time>
      </trkpt>
      <trkpt lat="46.96262" lon="6.01255">
        <ele>507.232788</ele>
        <time>2008-11-23T14:28:08Z</time>
      </trkpt>
      <trkpt lat="46.96242" lon="6.01303">
        <ele>510.59729</ele>
        <time>2008-11-23T14:29:02Z</time>
      </trkpt>
      <trkpt lat="46.96226" lon="6.01318">
        <ele>511.078003</ele>
        <time>2008-11-23T14:29:25Z</time>
      </trkpt>
      <trkpt lat="46.96208" lon="6.01309">
        <ele>512.52002</ele>
        <time>2008-11-23T14:29:57Z</time>
      </trkpt>
      <trkpt lat="46.9619" lon="6.01281">
        <ele>513.000732</ele>
        <time>2008-11-23T14:30:58Z</time>
      </trkpt>
      <trkpt lat="46.96166" lon="6.01257">
        <ele>513.962036</ele>
        <time>2008-11-23T14:31:23Z</time>
      </trkpt>
      <trkpt lat="46.96155" lon="6.0125">
        <ele>514.92334</ele>
        <time>2008-11-23T14:31:31Z</time>
      </trkpt>
      <trkpt lat="46.96145" lon="6.01239">
        <ele>515.404053</ele>
        <time>2008-11-23T14:31:43Z</time>
      </trkpt>
      <trkpt lat="46.96133" lon="6.01233">
        <ele>515.884644</ele>
        <time>2008-11-23T14:31:57Z</time>
      </trkpt>
      <trkpt lat="46.96106" lon="6.01225">
        <ele>519.249268</ele>
        <time>2008-11-23T14:32:29Z</time>
      </trkpt>
      <trkpt lat="46.96089" lon="6.01183">
        <ele>520.691284</ele>
        <time>2008-11-23T14:32:58Z</time>
      </trkpt>
      <trkpt lat="46.96077" lon="6.01201">
        <ele>524.055786</ele>
        <time>2008-11-23T14:33:18Z</time>
      </trkpt>
      <trkpt lat="46.96084" lon="6.01209">
        <ele>524.536499</ele>
        <time>2008-11-23T14:33:25Z</time>
      </trkpt>
      <trkpt lat="46.96101" lon="6.01237">
        <ele>525.978394</ele>
        <time>2008-11-23T14:33:52Z</time>
      </trkpt>
      <trkpt lat="46.96126" lon="6.01295">
        <ele>528.381836</ele>
        <time>2008-11-23T14:34:37Z</time>
      </trkpt>
      <trkpt lat="46.96159" lon="6.0135">
        <ele>531.746338</ele>
        <time>2008-11-23T14:35:29Z</time>
      </trkpt>
      <trkpt lat="46.96169" lon="6.01373">
        <ele>532.707764</ele>
        <time>2008-11-23T14:35:56Z</time>
      </trkpt>
      <trkpt lat="46.96202" lon="6.01435">
        <ele>536.072388</ele>
        <time>2008-11-23T14:36:54Z</time>
      </trkpt>
      <trkpt lat="46.96223" lon="6.01477">
        <ele>538.956299</ele>
        <time>2008-11-23T14:37:35Z</time>
      </trkpt>
      <trkpt lat="46.96321" lon="6.01558">
        <ele>541.84021</ele>
        <time>2008-11-23T14:40:21Z</time>
      </trkpt>
      <trkpt lat="46.96345" lon="6.01575">
        <ele>542.320923</ele>
        <time>2008-11-23T14:40:59Z</time>
      </trkpt>
      <trkpt lat="46.96349" lon="6.01574">
        <ele>543.282104</ele>
        <time>2008-11-23T14:41:03Z</time>
      </trkpt>
      <trkpt lat="46.96361" lon="6.01531">
        <ele>541.84021</ele>
        <time>2008-11-23T14:41:26Z</time>
      </trkpt>
      <trkpt lat="46.96365" lon="6.01515">
        <ele>541.359497</ele>
        <time>2008-11-23T14:41:36Z</time>
      </trkpt>
      <trkpt lat="46.96373" lon="6.0151">
        <ele>539.917603</ele>
        <time>2008-11-23T14:41:43Z</time>
      </trkpt>
      <trkpt lat="46.964" lon="6.01506">
        <ele>537.994995</ele>
        <time>2008-11-23T14:42:11Z</time>
      </trkpt>
      <trkpt lat="46.96427" lon="6.01523">
        <ele>535.110962</ele>
        <time>2008-11-23T14:42:38Z</time>
      </trkpt>
      <trkpt lat="46.9643" lon="6.01522">
        <ele>535.110962</ele>
        <time>2008-11-23T14:42:40Z</time>
      </trkpt>
      <trkpt lat="46.96465" lon="6.01514">
        <ele>533.188354</ele>
        <time>2008-11-23T14:43:05Z</time>
      </trkpt>
      <trkpt lat="46.96487" lon="6.01491">
        <ele>531.265747</ele>
        <time>2008-11-23T14:43:27Z</time>
      </trkpt>
      <trkpt lat="46.96499" lon="6.01445">
        <ele>528.862549</ele>
        <time>2008-11-23T14:43:52Z</time>
      </trkpt>
      <trkpt lat="46.96506" lon="6.01415">
        <ele>527.901001</ele>
        <time>2008-11-23T14:44:17Z</time>
      </trkpt>
      <trkpt lat="46.96513" lon="6.01402">
        <ele>527.42041</ele>
        <time>2008-11-23T14:44:37Z</time>
      </trkpt>
      <trkpt lat="46.96519" lon="6.01388">
        <ele>524.536499</ele>
        <time>2008-11-23T14:45:30Z</time>
      </trkpt>
      <trkpt lat="46.9651" lon="6.0138">
        <ele>523.575195</ele>
        <time>2008-11-23T14:45:54Z</time>
      </trkpt>
      <trkpt lat="46.96521" lon="6.01393">
        <ele>526.939819</ele>
        <time>2008-11-23T14:46:12Z</time>
      </trkpt>
      <trkpt lat="46.96531" lon="6.01402">
        <ele>526.939819</ele>
        <time>2008-11-23T14:46:31Z</time>
      </trkpt>
      <trkpt lat="46.96547" lon="6.01395">
        <ele>525.978394</ele>
        <time>2008-11-23T14:46:47Z</time>
      </trkpt>
      <trkpt lat="46.96573" lon="6.01409">
        <ele>524.055786</ele>
        <time>2008-11-23T14:48:03Z</time>
      </trkpt>
      <trkpt lat="46.96585" lon="6.01405">
        <ele>522.613892</ele>
        <time>2008-11-23T14:48:20Z</time>
      </trkpt>
      <trkpt lat="46.96604" lon="6.01415">
        <ele>520.691284</ele>
        <time>2008-11-23T14:48:41Z</time>
      </trkpt>
      <trkpt lat="46.96617" lon="6.01413">
        <ele>519.729858</ele>
        <time>2008-11-23T14:48:56Z</time>
      </trkpt>
      <trkpt lat="46.96629" lon="6.01422">
        <ele>518.287842</ele>
        <time>2008-11-23T14:49:16Z</time>
      </trkpt>
      <trkpt lat="46.96645" lon="6.01429">
        <ele>517.32666</ele>
        <time>2008-11-23T14:49:27Z</time>
      </trkpt>
      <trkpt lat="46.96654" lon="6.0143">
        <ele>516.365234</ele>
        <time>2008-11-23T14:49:38Z</time>
      </trkpt>
      <trkpt lat="46.9667" lon="6.01441">
        <ele>515.404053</ele>
        <time>2008-11-23T14:49:50Z</time>
      </trkpt>
      <trkpt lat="46.9668" lon="6.01449">
        <ele>515.404053</ele>
        <time>2008-11-23T14:50:01Z</time>
      </trkpt>
      <trkpt lat="46.96682" lon="6.01454">
        <ele>514.442627</ele>
        <time>2008-11-23T14:50:05Z</time>
      </trkpt>
      <trkpt lat="46.96698" lon="6.01472">
        <ele>513.000732</ele>
        <time>2008-11-23T14:50:20Z</time>
      </trkpt>
      <trkpt lat="46.96706" lon="6.01481">
        <ele>513.000732</ele>
        <time>2008-11-23T14:50:35Z</time>
      </trkpt>
      <trkpt lat="46.96716" lon="6.0149">
        <ele>511.558716</ele>
        <time>2008-11-23T14:50:46Z</time>
      </trkpt>
      <trkpt lat="46.96729" lon="6.01501">
        <ele>508.194092</ele>
        <time>2008-11-23T14:50:59Z</time>
      </trkpt>
      <trkpt lat="46.96739" lon="6.01511">
        <ele>509.636108</ele>
        <time>2008-11-23T14:51:11Z</time>
      </trkpt>
      <trkpt lat="46.96745" lon="6.01513">
        <ele>509.155396</ele>
        <time>2008-11-23T14:51:19Z</time>
      </trkpt>
      <trkpt lat="46.96757" lon="6.01519">
        <ele>507.232788</ele>
        <time>2008-11-23T14:51:38Z</time>
      </trkpt>
      <trkpt lat="46.96765" lon="6.01511">
        <ele>505.790894</ele>
        <time>2008-11-23T14:51:49Z</time>
      </trkpt>
      <trkpt lat="46.96779" lon="6.0149">
        <ele>503.387451</ele>
        <time>2008-11-23T14:52:01Z</time>
      </trkpt>
      <trkpt lat="46.96783" lon="6.01481">
        <ele>503.868164</ele>
        <time>2008-11-23T14:52:03Z</time>
      </trkpt>
      <trkpt lat="46.96794" lon="6.01467">
        <ele>503.868164</ele>
        <time>2008-11-23T14:52:08Z</time>
      </trkpt>
      <trkpt lat="46.96795" lon="6.01466">
        <ele>503.868164</ele>
        <time>2008-11-23T14:52:22Z</time>
      </trkpt>
      <trkpt lat="46.96798" lon="6.01462">
        <ele>502.426147</ele>
        <time>2008-11-23T14:52:47Z</time>
      </trkpt>
      <trkpt lat="46.96789" lon="6.01439">
        <ele>500.022949</ele>
        <time>2008-11-23T14:53:04Z</time>
      </trkpt>
      <trkpt lat="46.96786" lon="6.01421">
        <ele>497.619629</ele>
        <time>2008-11-23T14:53:15Z</time>
      </trkpt>
      <trkpt lat="46.9679" lon="6.01403">
        <ele>495.696899</ele>
        <time>2008-11-23T14:53:29Z</time>
      </trkpt>
      <trkpt lat="46.96793" lon="6.01383">
        <ele>493.774292</ele>
        <time>2008-11-23T14:53:43Z</time>
      </trkpt>
      <trkpt lat="46.96791" lon="6.01366">
        <ele>492.332397</ele>
        <time>2008-11-23T14:53:53Z</time>
      </trkpt>
      <trkpt lat="46.96801" lon="6.01353">
        <ele>490.890381</ele>
        <time>2008-11-23T14:54:06Z</time>
      </trkpt>
      <trkpt lat="46.96799" lon="6.01343">
        <ele>489.929077</ele>
        <time>2008-11-23T14:54:11Z</time>
      </trkpt>
      <trkpt lat="46.96801" lon="6.01336">
        <ele>488.967773</ele>
        <time>2008-11-23T14:54:18Z</time>
      </trkpt>
      <trkpt lat="46.96804" lon="6.01316">
        <ele>487.525635</ele>
        <time>2008-11-23T14:54:31Z</time>
      </trkpt>
      <trkpt lat="46.96813" lon="6.0131">
        <ele>485.603027</ele>
        <time>2008-11-23T14:54:43Z</time>
      </trkpt>
      <trkpt lat="46.96813" lon="6.01295">
        <ele>484.641846</ele>
        <time>2008-11-23T14:54:59Z</time>
      </trkpt>
      <trkpt lat="46.9682" lon="6.01277">
        <ele>483.199829</ele>
        <time>2008-11-23T14:55:11Z</time>
      </trkpt>
      <trkpt lat="46.96822" lon="6.01275">
        <ele>483.199829</ele>
        <time>2008-11-23T14:55:13Z</time>
      </trkpt>
      <trkpt lat="46.96828" lon="6.01262">
        <ele>481.277222</ele>
        <time>2008-11-23T14:55:27Z</time>
      </trkpt>
      <trkpt lat="46.96841" lon="6.01247">
        <ele>478.873901</ele>
        <time>2008-11-23T14:55:52Z</time>
      </trkpt>
      <trkpt lat="46.96852" lon="6.01225">
        <ele>476.470581</ele>
        <time>2008-11-23T14:56:11Z</time>
      </trkpt>
      <trkpt lat="46.96857" lon="6.01218">
        <ele>476.951294</ele>
        <time>2008-11-23T14:56:26Z</time>
      </trkpt>
      <trkpt lat="46.96854" lon="6.01214">
        <ele>475.989868</ele>
        <time>2008-11-23T14:56:46Z</time>
      </trkpt>
      <trkpt lat="46.96863" lon="6.01205">
        <ele>474.547974</ele>
        <time>2008-11-23T14:56:57Z</time>
      </trkpt>
      <trkpt lat="46.96876" lon="6.01193">
        <ele>472.625366</ele>
        <time>2008-11-23T14:57:11Z</time>
      </trkpt>
      <trkpt lat="46.96909" lon="6.01183">
        <ele>469.741333</ele>
        <time>2008-11-23T14:57:50Z</time>
      </trkpt>
      <trkpt lat="46.96933" lon="6.01174">
        <ele>466.857422</ele>
        <time>2008-11-23T14:58:14Z</time>
      </trkpt>
      <trkpt lat="46.96934" lon="6.01128">
        <ele>463.492798</ele>
        <time>2008-11-23T14:58:36Z</time>
      </trkpt>
      <trkpt lat="46.96927" lon="6.0108">
        <ele>461.089478</ele>
        <time>2008-11-23T14:59:00Z</time>
      </trkpt>
      <trkpt lat="46.96934" lon="6.01056">
        <ele>458.205566</ele>
        <time>2008-11-23T14:59:19Z</time>
      </trkpt>
      <trkpt lat="46.96938" lon="6.01038">
        <ele>454.84082</ele>
        <time>2008-11-23T14:59:37Z</time>
      </trkpt>
      <trkpt lat="46.96938" lon="6.01024">
        <ele>451.957031</ele>
        <time>2008-11-23T14:59:51Z</time>
      </trkpt>
      <trkpt lat="46.9694" lon="6.01002">
        <ele>448.592407</ele>
        <time>2008-11-23T15:00:19Z</time>
      </trkpt>
      <trkpt lat="46.9694" lon="6.00983">
        <ele>445.708374</ele>
        <time>2008-11-23T15:00:40Z</time>
      </trkpt>
      <trkpt lat="46.96941" lon="6.00983">
        <ele>444.266479</ele>
        <time>2008-11-23T15:00:59Z</time>
      </trkpt>
      <trkpt lat="46.96944" lon="6.00978">
        <ele>444.266479</ele>
        <time>2008-11-23T15:01:16Z</time>
      </trkpt>
      <trkpt lat="46.96943" lon="6.0098">
        <ele>443.785767</ele>
        <time>2008-11-23T15:01:20Z</time>
      </trkpt>
      <trkpt lat="46.96944" lon="6.0098">
        <ele>442.343872</ele>
        <time>2008-11-23T15:01:28Z</time>
      </trkpt>
      <trkpt lat="46.96947" lon="6.00984">
        <ele>444.74707</ele>
        <time>2008-11-23T15:03:48Z</time>
      </trkpt>
      <trkpt lat="46.96934" lon="6.00978">
        <ele>441.382446</ele>
        <time>2008-11-23T15:04:06Z</time>
      </trkpt>
      <trkpt lat="46.96922" lon="6.00983">
        <ele>438.017822</ele>
        <time>2008-11-23T15:04:27Z</time>
      </trkpt>
      <trkpt lat="46.96899" lon="6.01013">
        <ele>434.65332</ele>
        <time>2008-11-23T15:05:04Z</time>
      </trkpt>
      <trkpt lat="46.96895" lon="6.01017">
        <ele>433.211304</ele>
        <time>2008-11-23T15:05:11Z</time>
      </trkpt>
      <trkpt lat="46.96885" lon="6.01032">
        <ele>429.846558</ele>
        <time>2008-11-23T15:05:29Z</time>
      </trkpt>
      <trkpt lat="46.96878" lon="6.0104">
        <ele>428.404663</ele>
        <time>2008-11-23T15:05:42Z</time>
      </trkpt>
      <trkpt lat="46.96876" lon="6.01054">
        <ele>427.443359</ele>
        <time>2008-11-23T15:06:02Z</time>
      </trkpt>
      <trkpt lat="46.96875" lon="6.01069">
        <ele>426.962769</ele>
        <time>2008-11-23T15:06:12Z</time>
      </trkpt>
      <trkpt lat="46.9686" lon="6.01099">
        <ele>426.001343</ele>
        <time>2008-11-23T15:06:31Z</time>
      </trkpt>
      <trkpt lat="46.96848" lon="6.01124">
        <ele>424.078735</ele>
        <time>2008-11-23T15:06:54Z</time>
      </trkpt>
      <trkpt lat="46.96847" lon="6.01124">
        <ele>424.559448</ele>
        <time>2008-11-23T15:06:59Z</time>
      </trkpt>
      <trkpt lat="46.96829" lon="6.01111">
        <ele>423.117432</ele>
        <time>2008-11-23T15:07:13Z</time>
      </trkpt>
      <trkpt lat="46.96823" lon="6.01102">
        <ele>422.636719</ele>
        <time>2008-11-23T15:07:19Z</time>
      </trkpt>
      <trkpt lat="46.9681" lon="6.0109">
        <ele>421.194824</ele>
        <time>2008-11-23T15:07:33Z</time>
      </trkpt>
      <trkpt lat="46.96806" lon="6.01169">
        <ele>418.791504</ele>
        <time>2008-11-23T15:08:07Z</time>
      </trkpt>
      <trkpt lat="46.96798" lon="6.012">
        <ele>417.349609</ele>
        <time>2008-11-23T15:08:34Z</time>
      </trkpt>
      <trkpt lat="46.96794" lon="6.01185">
        <ele>414.465454</ele>
        <time>2008-11-23T15:09:30Z</time>
      </trkpt>
      <trkpt lat="46.96788" lon="6.01181">
        <ele>413.02356</ele>
        <time>2008-11-23T15:09:38Z</time>
      </trkpt>
      <trkpt lat="46.96791" lon="6.01166">
        <ele>409.659058</ele>
        <time>2008-11-23T15:09:58Z</time>
      </trkpt>
      <trkpt lat="46.96788" lon="6.0116">
        <ele>406.294312</ele>
        <time>2008-11-23T15:10:28Z</time>
      </trkpt>
      <trkpt lat="46.9678" lon="6.01152">
        <ele>403.4104</ele>
        <time>2008-11-23T15:10:47Z</time>
      </trkpt>
      <trkpt lat="46.96782" lon="6.01131">
        <ele>400.526489</ele>
        <time>2008-11-23T15:11:11Z</time>
      </trkpt>
      <trkpt lat="46.96775" lon="6.01095">
        <ele>397.161743</ele>
        <time>2008-11-23T15:11:42Z</time>
      </trkpt>
      <trkpt lat="46.96766" lon="6.01096">
        <ele>397.161743</ele>
        <time>2008-11-23T15:11:43Z</time>
      </trkpt>
      <trkpt lat="46.96761" lon="6.01104">
        <ele>396.200562</ele>
        <time>2008-11-23T15:12:06Z</time>
      </trkpt>
      <trkpt lat="46.96753" lon="6.01089">
        <ele>396.681152</ele>
        <time>2008-11-23T15:14:35Z</time>
      </trkpt>
      <trkpt lat="46.96739" lon="6.01077">
        <ele>389.471191</ele>
        <time>2008-11-23T15:15:17Z</time>
      </trkpt>
      <trkpt lat="46.96741" lon="6.01079">
        <ele>395.719849</ele>
        <time>2008-11-23T15:15:18Z</time>
      </trkpt>
      <trkpt lat="46.9674" lon="6.01081">
        <ele>391.874512</ele>
        <time>2008-11-23T15:15:39Z</time>
      </trkpt>
      <trkpt lat="46.9674" lon="6.01081">
        <ele>395.719849</ele>
        <time>2008-11-23T15:15:40Z</time>
      </trkpt>
      <trkpt lat="46.9674" lon="6.01081">
        <ele>395.239136</ele>
        <time>2008-11-23T15:15:41Z</time>
      </trkpt>
    </trkseg>
  </trk>
</gpx>